Time,TemperatureF,DewpointF,PressureIn,WindDirection,WindDirectionDegrees,WindSpeedMPH,WindSpeedGustMPH,Humidity,HourlyPrecipIn,Conditions,Clouds,dailyrainin,SolarRadiationWatts/m^2,SoftwareType,DateUTC
2013-06-07 00:00:00,49.0,42.0,-100.00,ENE,78,1.0,7.0,76,-99.99,,,0.00,0.000000,,2013-06-07 06:00:00,
2013-06-07 00:52:00,49.0,42.0,-100.00,ENE,78,1.0,7.0,76,-99.99,,,0.00,0.000000,,2013-06-07 06:52:00,
2013-06-07 01:00:00,49.0,-99.9,-100.00,North,-999,-999.0,-999.0,-999,-99.99,,,0.00,,,2013-06-07 07:00:00,
2013-06-07 01:52:00,49.0,-99.9,-100.00,North,-999,-999.0,-999.0,-999,-99.99,,,0.00,,,2013-06-07 07:52:00,
2013-06-07 02:00:00,47.0,38.0,-100.00,SSE,152,1.0,6.0,72,-99.99,,,0.00,0.000000,,2013-06-07 08:00:00,
2013-06-07 02:52:00,47.0,38.0,-100.00,SSE,152,1.0,6.0,72,-99.99,,,0.00,0.000000,,2013-06-07 08:52:00,
2013-06-07 03:00:00,43.0,37.0,-100.00,ENE,58,0.0,1.0,79,-99.99,,,0.00,0.000000,,2013-06-07 09:00:00,
2013-06-07 03:53:00,43.0,37.0,-100.00,ENE,58,0.0,1.0,79,-99.99,,,0.00,0.000000,,2013-06-07 09:53:00,
2013-06-07 04:00:00,40.0,37.0,-100.00,SSE,151,0.0,1.0,86,-99.99,,,0.00,0.000000,,2013-06-07 10:00:00,
2013-06-07 04:53:00,40.0,37.0,-100.00,SSE,151,0.0,1.0,86,-99.99,,,0.00,0.000000,,2013-06-07 10:53:00,
2013-06-07 05:00:00,38.0,36.0,-100.00,South,172,0.0,1.0,90,-99.99,,,0.00,0.000000,,2013-06-07 11:00:00,
2013-06-07 05:52:00,38.0,36.0,-100.00,South,172,0.0,1.0,90,-99.99,,,0.00,0.000000,,2013-06-07 11:52:00,
2013-06-07 06:00:00,38.0,36.0,-100.00,SSE,161,0.0,1.0,93,-99.99,,,0.00,0.900000,,2013-06-07 12:00:00,
2013-06-07 06:52:00,38.0,36.0,-100.00,SSE,161,0.0,1.0,93,-99.99,,,0.00,0.900000,,2013-06-07 12:52:00,
2013-06-07 07:00:00,39.0,37.0,-100.00,SE,144,0.0,1.0,94,-99.99,,,0.00,13.100000,,2013-06-07 13:00:00,
2013-06-07 07:52:00,39.0,37.0,-100.00,SE,144,0.0,1.0,94,-99.99,,,0.00,13.100000,,2013-06-07 13:52:00,
2013-06-07 08:00:00,47.0,44.0,-100.00,SSE,147,0.0,0.0,87,-99.99,,,0.00,58.900002,,2013-06-07 14:00:00,
2013-06-07 08:52:00,47.0,44.0,-100.00,SSE,147,0.0,0.0,87,-99.99,,,0.00,58.900002,,2013-06-07 14:52:00,
2013-06-07 09:00:00,59.0,46.0,-100.00,SSE,167,0.0,3.0,63,-99.99,,,-99.99,107.800003,,2013-06-07 15:00:00,
2013-06-07 09:53:00,59.0,46.0,-100.00,SSE,167,0.0,3.0,63,-99.99,,,-99.99,107.800003,,2013-06-07 15:53:00,
2013-06-07 10:00:00,65.0,41.0,-100.00,WNW,282,1.0,3.0,41,-99.99,,,0.00,579.400024,,2013-06-07 16:00:00,
2013-06-07 10:53:00,65.0,41.0,-100.00,WNW,282,1.0,3.0,41,-99.99,,,0.00,579.400024,,2013-06-07 16:53:00,
2013-06-07 11:00:00,68.0,39.0,-100.00,NW,314,1.0,4.0,35,-99.99,,,0.00,875.200012,,2013-06-07 17:00:00,
2013-06-07 11:52:00,68.0,39.0,-100.00,NW,314,1.0,4.0,35,-99.99,,,0.00,875.200012,,2013-06-07 17:52:00,
2013-06-07 12:00:00,71.0,38.0,-100.00,NW,311,2.0,4.0,30,-99.99,,,0.00,996.000000,,2013-06-07 18:00:00,
2013-06-07 12:59:00,71.0,38.0,-100.00,NW,311,2.0,4.0,30,-99.99,,,0.00,996.000000,,2013-06-07 18:59:00,
2013-06-07 13:00:00,75.0,36.0,-100.00,WNW,297,2.0,5.0,25,-99.99,,,0.00,897.700012,,2013-06-07 19:00:00,
2013-06-07 13:59:00,75.0,36.0,-100.00,WNW,297,2.0,5.0,25,-99.99,,,0.00,897.700012,,2013-06-07 19:59:00,
2013-06-07 14:00:00,69.0,25.0,-100.00,WNW,283,2.0,7.0,19,-99.99,,,-99.99,845.900024,,2013-06-07 20:00:00,
2013-06-07 14:58:00,69.0,25.0,-100.00,WNW,283,2.0,7.0,19,-99.99,,,-99.99,845.900024,,2013-06-07 20:58:00,
2013-06-07 15:00:00,68.0,24.0,-100.00,WNW,296,1.0,7.0,19,-99.99,,,-99.99,320.200012,,2013-06-07 21:00:00,
2013-06-07 16:49:00,50.0,20.0,-100.00,NNW,327,1.0,6.0,30,-99.99,,,-99.99,60.099998,,2013-06-07 22:49:00,
2013-06-07 16:59:00,50.0,20.0,-100.00,NNW,327,1.0,6.0,30,-99.99,,,-99.99,60.099998,,2013-06-07 22:59:00,
2013-06-07 17:00:00,48.0,46.0,-100.00,South,180,1.0,4.0,90,-99.99,,,-99.99,12.200000,,2013-06-07 23:00:00,
2013-06-07 18:00:00,49.0,46.0,-100.00,ESE,114,1.0,3.0,91,-99.99,,,-99.99,31.400000,,2013-06-08 00:00:00,
2013-06-07 20:00:00,51.0,47.0,-100.00,NE,35,0.0,2.0,87,-99.99,,,0.00,63.500000,,2013-06-08 02:00:00,
2013-06-07 20:59:00,51.0,47.0,-100.00,NE,35,0.0,2.0,87,-99.99,,,0.00,63.500000,,2013-06-08 02:59:00,
2013-06-07 21:00:00,46.0,44.0,-100.00,ESE,116,0.0,1.0,91,-99.99,,,0.00,5.200000,,2013-06-08 03:00:00,
2013-06-07 22:00:00,44.0,42.0,-100.00,SSE,155,0.0,1.0,94,-99.99,,,-99.99,0.000000,,2013-06-08 04:00:00,
2013-06-07 22:53:00,44.0,42.0,-100.00,SSE,155,0.0,1.0,94,-99.99,,,-99.99,0.000000,,2013-06-08 04:53:00,
2013-06-07 23:00:00,42.0,41.0,-100.00,SE,133,0.0,1.0,95,-99.99,,,0.00,0.600000,,2013-06-08 05:00:00,
2013-06-07 23:53:00,42.0,41.0,-100.00,SE,133,0.0,1.0,95,-99.99,,,0.00,0.600000,,2013-06-08 05:53:00,